Kansas City, KS (66101)

11:58 AM CST on December 07, 2016 (GMT -0600)
ASOS_HFM | | Change Station

Elev 757 ft 39.12 °N, 94.60 °W | Updated 23 minutes ago

Light Snow
Light Snow Mist
27 °F
Feels Like 20 °F
N
6
Wind Variable Wind from NW
Gusts 0.0 mph

Today
High -- | Low -- °F
--% Chance of Precip.
Yesterday
High -- | Low -- °F
Precip. -- in
Pressure 30.35 in
Visibility 0.8 miles
Clouds
Windchill 20 °F
Dew Point 21 °F
Humidity 80%
Rainfall in
Snow Depth Not available.
7:24 AM 4:55 PM
First Quarter, 54% visible
METAR KMKC 071754Z 32007KT 3/4SM -SN BR VV015 M03/M05 A3032 RMK AO2 SLP276 P0000 60000 T10281050 11006 21028 50007
Pressure 30.35 in
Visibility 0.8 miles
Clouds
Windchill 20 °F
Dew Point 21 °F
Humidity 80%
Rainfall in
Snow Depth Not available.
7:24 AM 4:55 PM
First Quarter, 54% visible
METAR KMKC 071754Z 32007KT 3/4SM -SN BR VV015 M03/M05 A3032 RMK AO2 SLP276 P0000 60000 T10281050 11006 21028 50007

10-Day Weather Forecast

Almanac

Astronomy

Dec. 07, 2016 Rise Set
Actual Time
Civil Twilight
Nautical Twilight
Astronomical Twilight
Moon
Length of Visible Light
Length of Day
Tomorrow will be .
, % of the Moon is Illuminated

Today's Extremes

State Highs State Lows

Community

WunderPhotos

Upload Photos

1,956,156 photos uploaded!

WunderBlog® & News

Nearby

Air Quality

  Air Quality AQ Index Pollutant
Not available.

Snow Depth

Station Depth Elevation

Earthquake Activity

City Distance Mag. Time & Date
Minimum magnitude displayed is 2.5.

Coastal Water Temperatures

Place Temperature

Stations

Nearby Weather Stations

Station Location Temp. Windchill Dew Point Humidity Wind Precip. Elev Updated Type
                   

Watches & Warnings

There are currently no watches in effect.